createdAt,value
2018-11-04T00:00:32.407Z,77.80
2018-11-04T00:03:00.187Z,77.80
2018-11-04T00:05:28.590Z,78.20
2018-11-04T00:07:56.359Z,78.20
2018-11-04T00:10:24.142Z,78.20
2018-11-04T00:12:51.893Z,77.80
2018-11-04T00:15:19.633Z,77.80
2018-11-04T00:17:47.381Z,78.20
2018-11-04T00:20:15.296Z,77.80
2018-11-04T00:22:43.022Z,78.40
2018-11-04T00:25:13.257Z,78.60
2018-11-04T00:27:40.968Z,78.40
2018-11-04T00:30:11.417Z,78.60
2018-11-04T00:32:39.484Z,78.60
2018-11-04T00:35:07.617Z,78.60
2018-11-04T00:37:35.392Z,78.40
2018-11-04T00:40:03.276Z,78.40
2018-11-04T00:42:31.004Z,78.20
2018-11-04T00:44:58.820Z,78.00
2018-11-04T00:47:26.888Z,78.00
2018-11-04T00:49:54.642Z,78.20
2018-11-04T00:52:22.425Z,78.20
2018-11-04T00:54:50.162Z,78.20
2018-11-04T00:57:17.911Z,78.20
2018-11-04T00:59:45.628Z,78.40
2018-11-04T01:02:13.432Z,78.40
2018-11-04T01:04:41.343Z,78.40
2018-11-04T01:07:09.129Z,78.60
2018-11-04T01:09:36.851Z,78.60
2018-11-04T01:12:04.872Z,78.40
2018-11-04T01:14:32.607Z,78.40
2018-11-04T01:17:00.352Z,78.60
2018-11-04T01:19:28.093Z,78.70
2018-11-04T01:21:55.812Z,78.60
2018-11-04T01:24:29.682Z,78.90
2018-11-04T01:26:57.388Z,78.90
2018-11-04T01:29:25.048Z,78.90
2018-11-04T01:31:52.801Z,78.90
2018-11-04T01:34:20.581Z,78.70
2018-11-04T01:36:48.283Z,78.90
2018-11-04T01:39:16.049Z,78.60
2018-11-04T01:41:43.824Z,78.60
2018-11-04T01:44:11.826Z,79.10
2018-11-04T01:46:40.792Z,78.70
2018-11-04T01:49:08.672Z,79.10
2018-11-04T01:51:36.436Z,79.30
2018-11-04T01:54:04.580Z,79.70
2018-11-04T01:56:32.328Z,79.90
2018-11-04T01:59:00.086Z,80.00
2018-11-04T02:01:27.813Z,80.20
2018-11-04T02:03:55.601Z,80.60
2018-11-04T02:06:23.328Z,81.00
2018-11-04T02:08:51.068Z,81.40
2018-11-04T02:11:18.773Z,81.50
2018-11-04T02:13:46.537Z,82.30
2018-11-04T02:16:14.349Z,82.70
2018-11-04T02:18:42.328Z,83.00
2018-11-04T02:21:10.028Z,83.60
2018-11-04T02:23:37.801Z,83.80
2018-11-04T02:26:06.027Z,84.10
2018-11-04T02:28:33.709Z,84.00
2018-11-04T02:31:01.412Z,84.10
2018-11-04T02:33:29.090Z,84.00
2018-11-04T02:35:56.865Z,84.10
2018-11-04T02:38:24.536Z,84.50
2018-11-04T02:40:52.354Z,84.10
2018-11-04T02:43:20.144Z,84.70
2018-11-04T02:45:47.909Z,84.10
2018-11-04T02:48:15.688Z,84.50
2018-11-04T02:50:43.404Z,85.30
2018-11-04T02:53:11.157Z,85.80
2018-11-04T02:55:38.865Z,85.30
2018-11-04T02:58:06.576Z,85.60
2018-11-04T03:00:34.288Z,84.90
2018-11-04T03:03:02.037Z,85.30
2018-11-04T03:05:29.756Z,85.60
2018-11-04T03:07:57.432Z,86.20
2018-11-04T03:10:25.184Z,85.80
2018-11-04T03:12:52.961Z,85.60
2018-11-04T03:15:20.664Z,85.60
2018-11-04T03:17:48.370Z,85.60
2018-11-04T03:20:16.052Z,85.10
2018-11-04T03:22:43.793Z,85.60
2018-11-04T03:25:11.523Z,85.80
2018-11-04T03:27:39.281Z,86.00
2018-11-04T03:30:07.602Z,85.80
2018-11-04T03:32:35.336Z,86.00
2018-11-04T03:35:03.157Z,86.60
2018-11-04T03:37:30.897Z,86.60
2018-11-04T03:39:58.609Z,86.20
2018-11-04T03:42:26.358Z,86.60
2018-11-04T03:44:54.048Z,86.40
2018-11-04T03:47:21.781Z,86.60
2018-11-04T03:49:49.477Z,86.40
2018-11-04T03:52:17.226Z,85.80
2018-11-04T03:54:44.920Z,86.40
2018-11-04T03:57:12.677Z,85.80
2018-11-04T03:59:40.566Z,86.40
2018-11-04T04:02:08.321Z,86.40
2018-11-04T04:04:36.093Z,86.00
2018-11-04T04:07:03.860Z,85.80
2018-11-04T04:09:31.919Z,85.30
2018-11-04T04:11:59.674Z,85.50
2018-11-04T04:14:27.463Z,86.20
2018-11-04T04:16:55.189Z,86.00
2018-11-04T04:19:22.853Z,86.00
2018-11-04T04:21:50.592Z,86.20
2018-11-04T04:24:18.387Z,86.20
2018-11-04T04:26:46.205Z,86.20
2018-11-04T04:29:14.023Z,85.80
2018-11-04T04:31:41.760Z,85.60
2018-11-04T04:34:09.473Z,86.00
2018-11-04T04:36:37.189Z,86.40
2018-11-04T04:39:07.477Z,86.40
2018-11-04T04:41:35.283Z,86.40
2018-11-04T04:44:03.026Z,86.20
2018-11-04T04:46:30.707Z,86.90
2018-11-04T04:48:58.444Z,87.50
2018-11-04T04:51:26.112Z,87.70
2018-11-04T04:53:53.837Z,87.90
2018-11-04T04:56:21.536Z,87.30
2018-11-04T04:58:49.276Z,87.90
2018-11-04T05:01:17.024Z,87.30
2018-11-04T05:03:44.861Z,87.50
2018-11-04T05:06:12.607Z,87.30
2018-11-04T05:08:40.306Z,87.50
2018-11-04T05:11:08.100Z,87.50
2018-11-04T05:13:35.848Z,87.30
2018-11-04T05:16:03.874Z,87.30
2018-11-04T05:18:31.598Z,87.70
2018-11-04T05:20:59.321Z,86.90
2018-11-04T05:23:27.002Z,86.80
2018-11-04T05:25:54.754Z,86.80
2018-11-04T05:28:22.501Z,86.80
2018-11-04T05:30:50.244Z,86.60
2018-11-04T05:33:17.910Z,86.40
2018-11-04T05:35:45.645Z,86.60
2018-11-04T05:38:13.380Z,86.60
2018-11-04T05:40:41.120Z,86.20
2018-11-04T05:43:08.844Z,86.60
2018-11-04T05:45:36.586Z,86.40
2018-11-04T05:48:04.454Z,86.80
2018-11-04T05:50:32.145Z,87.70
2018-11-04T05:52:59.864Z,86.90
2018-11-04T05:55:27.633Z,86.80
2018-11-04T05:57:55.432Z,86.90
2018-11-04T06:00:23.189Z,87.30
2018-11-04T06:02:50.939Z,86.90
2018-11-04T06:05:18.613Z,86.90
2018-11-04T06:07:46.376Z,87.50
2018-11-04T06:10:14.185Z,86.90
2018-11-04T06:12:41.879Z,87.90
2018-11-04T06:15:09.679Z,86.90
2018-11-04T06:17:37.409Z,87.30
2018-11-04T06:20:06.584Z,87.50
2018-11-04T06:22:34.296Z,87.70
2018-11-04T06:25:02.053Z,87.70
2018-11-04T06:27:29.735Z,87.30
2018-11-04T06:29:57.477Z,87.50
2018-11-04T06:32:25.241Z,87.90
2018-11-04T06:34:52.956Z,87.90
2018-11-04T06:37:20.676Z,87.50
2018-11-04T06:39:48.413Z,87.10
2018-11-04T06:42:16.149Z,87.10
2018-11-04T06:44:43.840Z,86.80
2018-11-04T06:47:11.712Z,86.80
2018-11-04T06:49:39.304Z,86.40
2018-11-04T06:52:07.712Z,86.80
2018-11-04T06:54:35.460Z,86.40
2018-11-04T06:57:03.220Z,86.00
2018-11-04T06:59:31.181Z,86.60
2018-11-04T07:01:58.917Z,86.90
2018-11-04T07:04:27.932Z,87.10
2018-11-04T07:06:56.369Z,86.80
2018-11-04T07:09:24.148Z,86.60
2018-11-04T07:11:52.028Z,86.00
2018-11-04T07:14:20.257Z,84.90
2018-11-04T07:16:48.964Z,84.70
2018-11-04T07:19:16.904Z,84.90
2018-11-04T07:21:44.608Z,84.30
2018-11-04T07:24:12.356Z,84.70
2018-11-04T07:26:40.101Z,85.10
2018-11-04T07:29:08.670Z,85.30
2018-11-04T07:31:36.437Z,85.80
2018-11-04T07:34:05.268Z,86.20
2018-11-04T07:36:33.067Z,86.80
2018-11-04T07:39:00.861Z,86.80
2018-11-04T07:41:28.645Z,86.40
2018-11-04T07:43:56.424Z,86.20
2018-11-04T07:46:24.183Z,85.30
2018-11-04T07:48:51.981Z,85.30
2018-11-04T07:51:19.696Z,85.50
2018-11-04T07:53:47.423Z,85.80
2018-11-04T07:56:15.665Z,85.80
2018-11-04T07:58:43.733Z,85.80
2018-11-04T08:01:11.489Z,85.80
2018-11-04T08:03:39.419Z,85.80
2018-11-04T08:06:07.256Z,85.80
2018-11-04T08:08:35.048Z,86.00
2018-11-04T08:11:02.819Z,85.30
2018-11-04T08:13:30.603Z,84.70
2018-11-04T08:15:58.336Z,85.50
2018-11-04T08:18:26.184Z,85.80
2018-11-04T08:20:53.938Z,86.00
2018-11-04T08:23:21.717Z,85.60
2018-11-04T08:25:50.747Z,85.80
2018-11-04T08:28:18.485Z,85.80
2018-11-04T08:30:46.248Z,85.30
2018-11-04T08:33:14.044Z,85.30
2018-11-04T08:35:41.783Z,85.30
2018-11-04T08:38:09.648Z,85.80
2018-11-04T08:40:37.408Z,85.80
2018-11-04T08:43:05.207Z,86.00
2018-11-04T08:45:33.019Z,85.30
2018-11-04T08:48:00.757Z,85.60
2018-11-04T08:50:28.547Z,85.60
2018-11-04T08:52:56.300Z,86.20
2018-11-04T08:55:24.723Z,85.10
2018-11-04T08:57:52.997Z,85.60
2018-11-04T09:00:20.744Z,84.70
2018-11-04T09:02:48.501Z,84.90
2018-11-04T09:05:16.727Z,84.70
2018-11-04T09:07:44.493Z,84.50
2018-11-04T09:10:13.886Z,84.00
2018-11-04T09:12:42.769Z,84.10
2018-11-04T09:15:11.213Z,83.60
2018-11-04T09:17:38.971Z,83.40
2018-11-04T09:20:10.502Z,83.00
2018-11-04T09:22:39.262Z,82.70
2018-11-04T09:25:07.810Z,83.20
2018-11-04T09:27:35.553Z,83.00
2018-11-04T09:30:04.269Z,82.30
2018-11-04T09:32:32.862Z,81.90
2018-11-04T09:35:00.876Z,82.10
2018-11-04T09:37:29.101Z,82.50
2018-11-04T09:39:56.872Z,82.50
2018-11-04T09:42:24.653Z,82.50
2018-11-04T09:44:52.402Z,82.80
2018-11-04T09:47:20.168Z,82.30
2018-11-04T09:49:47.904Z,82.10
2018-11-04T09:52:18.169Z,80.20
2018-11-04T09:54:46.208Z,79.50
2018-11-04T09:57:14.909Z,79.10
2018-11-04T09:59:42.706Z,78.70
2018-11-04T10:02:19.620Z,78.70
2018-11-04T10:04:47.356Z,78.40
2018-11-04T10:07:15.283Z,78.40
2018-11-04T10:09:43.159Z,79.70
2018-11-04T10:12:11.041Z,78.00
2018-11-04T10:14:38.837Z,77.30
2018-11-04T10:17:06.802Z,77.40
2018-11-04T10:19:34.832Z,77.80
2018-11-04T10:22:03.053Z,78.40
2018-11-04T10:24:30.975Z,77.80
2018-11-04T10:26:58.762Z,76.90
2018-11-04T10:29:26.542Z,77.60
2018-11-04T10:31:54.357Z,77.40
2018-11-04T10:34:22.198Z,75.60
2018-11-04T10:36:50.044Z,75.60
2018-11-04T10:39:18.108Z,76.30
2018-11-04T10:41:45.928Z,76.50
2018-11-04T10:44:15.332Z,76.90
2018-11-04T10:46:47.117Z,77.40
2018-11-04T10:49:15.683Z,76.70
2018-11-04T10:51:43.476Z,76.90
2018-11-04T10:54:11.461Z,77.30
2018-11-04T10:56:39.355Z,75.80
2018-11-04T10:59:07.132Z,75.00
2018-11-04T11:01:34.914Z,75.80
2018-11-04T11:04:02.822Z,75.90
2018-11-04T11:06:30.584Z,76.90
2018-11-04T11:08:58.399Z,76.90
2018-11-04T11:11:26.135Z,77.40
2018-11-04T11:13:53.963Z,77.40
2018-11-04T11:16:21.769Z,78.40
2018-11-04T11:18:49.592Z,78.70
2018-11-04T11:21:17.394Z,77.60
2018-11-04T11:23:45.195Z,77.30
2018-11-04T11:26:12.956Z,75.80
2018-11-04T11:28:40.739Z,74.80
2018-11-04T11:31:08.521Z,75.00
2018-11-04T11:33:36.249Z,74.30
2018-11-04T11:36:04.493Z,73.50
2018-11-04T11:38:32.294Z,74.10
2018-11-04T11:41:00.090Z,74.30
2018-11-04T11:43:27.944Z,74.60
2018-11-04T11:45:55.791Z,75.20
2018-11-04T11:48:23.569Z,75.40
2018-11-04T11:50:51.363Z,75.20
2018-11-04T11:53:19.187Z,75.00
2018-11-04T11:55:46.984Z,73.70
2018-11-04T11:58:14.841Z,74.80
2018-11-04T12:00:42.597Z,75.20
2018-11-04T12:03:16.102Z,74.60
2018-11-04T12:05:43.990Z,74.30
2018-11-04T12:08:11.778Z,74.50
2018-11-04T12:10:39.558Z,75.00
2018-11-04T12:13:07.315Z,75.00
2018-11-04T12:15:35.126Z,75.60
2018-11-04T12:18:02.907Z,75.40
2018-11-04T12:20:30.926Z,74.50
2018-11-04T12:22:58.767Z,75.20
2018-11-04T12:25:26.569Z,75.00
2018-11-04T12:27:54.330Z,74.30
2018-11-04T12:30:23.114Z,75.00
2018-11-04T12:32:51.003Z,75.60
2018-11-04T12:35:18.882Z,74.80
2018-11-04T12:37:46.557Z,74.50
2018-11-04T12:40:14.392Z,73.20
2018-11-04T12:42:42.437Z,72.80
2018-11-04T12:45:11.635Z,73.20
2018-11-04T12:47:39.558Z,71.30
2018-11-04T12:50:08.659Z,71.70
2018-11-04T12:52:36.504Z,71.80
2018-11-04T12:55:05.169Z,71.80
2018-11-04T12:57:32.912Z,70.70
2018-11-04T13:00:00.681Z,70.50
2018-11-04T13:02:28.528Z,71.80
2018-11-04T13:04:56.233Z,70.90
2018-11-04T13:07:24.077Z,71.50
2018-11-04T13:09:51.826Z,71.30
2018-11-04T13:12:19.549Z,71.30
2018-11-04T13:14:47.296Z,71.80
2018-11-04T13:17:15.299Z,72.20
2018-11-04T13:19:43.153Z,73.00
2018-11-04T13:22:10.915Z,73.70
2018-11-04T13:24:38.615Z,73.70
2018-11-04T13:27:07.414Z,73.90
2018-11-04T13:29:35.875Z,74.50
2018-11-04T13:32:04.539Z,75.20
2018-11-04T13:34:32.372Z,74.30
2018-11-04T13:37:00.093Z,75.80
2018-11-04T13:39:27.898Z,75.20
2018-11-04T13:41:55.696Z,73.90
2018-11-04T13:44:23.452Z,74.10
2018-11-04T13:46:51.308Z,73.90
2018-11-04T13:49:19.108Z,75.00
2018-11-04T13:51:47.039Z,75.40
2018-11-04T13:54:14.861Z,75.60
2018-11-04T13:56:42.786Z,76.30
2018-11-04T13:59:11.919Z,77.10
2018-11-04T14:01:42.087Z,76.90
2018-11-04T14:04:10.293Z,77.30
2018-11-04T14:06:38.029Z,77.40
2018-11-04T14:09:07.157Z,76.90
2018-11-04T14:11:34.945Z,76.30
2018-11-04T14:14:02.984Z,76.70
2018-11-04T14:16:30.751Z,76.30
2018-11-04T14:18:58.714Z,77.30
2018-11-04T14:21:26.504Z,77.10
2018-11-04T14:23:54.393Z,76.70
2018-11-04T14:26:22.101Z,76.50
2018-11-04T14:28:49.908Z,76.10
2018-11-04T14:31:17.813Z,76.90
2018-11-04T14:33:47.870Z,78.00
2018-11-04T14:36:15.656Z,78.00
2018-11-04T14:38:43.480Z,78.00
2018-11-04T14:41:11.277Z,78.60
2018-11-04T14:43:39.121Z,78.40
2018-11-04T14:46:06.908Z,79.50
2018-11-04T14:48:34.629Z,80.80
2018-11-04T14:51:02.475Z,80.80
2018-11-04T14:53:30.210Z,81.90
2018-11-04T14:55:58.012Z,83.00
2018-11-04T14:58:25.874Z,83.00
2018-11-04T15:00:54.429Z,82.80
2018-11-04T15:03:22.120Z,82.50
2018-11-04T15:05:49.925Z,82.10
2018-11-04T15:08:17.645Z,81.90
2018-11-04T15:10:45.358Z,81.90
2018-11-04T15:13:13.154Z,81.70
2018-11-04T15:15:40.935Z,81.40
2018-11-04T15:18:08.657Z,81.70
2018-11-04T15:20:39.856Z,81.40
2018-11-04T15:23:08.967Z,82.30
2018-11-04T15:25:36.743Z,82.10
2018-11-04T15:28:04.590Z,82.50
2018-11-04T15:30:32.422Z,82.70
2018-11-04T15:33:00.531Z,83.60
2018-11-04T15:35:28.641Z,84.30
2018-11-04T15:37:56.577Z,84.90
2018-11-04T15:40:24.395Z,85.60
2018-11-04T15:42:52.357Z,86.20
2018-11-04T15:45:20.289Z,86.80
2018-11-04T15:47:49.145Z,86.80
2018-11-04T15:50:18.174Z,86.90
2018-11-04T15:52:46.530Z,87.10
2018-11-04T15:55:21.067Z,87.70
2018-11-04T15:57:49.458Z,88.10
2018-11-04T16:00:17.598Z,88.10
2018-11-04T16:02:45.455Z,88.10
2018-11-04T16:05:13.204Z,87.70
2018-11-04T16:07:41.050Z,87.70
2018-11-04T16:10:09.825Z,87.90
2018-11-04T16:12:38.342Z,87.70
2018-11-04T16:15:08.181Z,87.10
2018-11-04T16:17:35.944Z,87.50
2018-11-04T16:20:04.184Z,87.70
2018-11-04T16:22:31.994Z,87.10
2018-11-04T16:24:59.858Z,87.50
2018-11-04T16:27:27.847Z,87.10
2018-11-04T16:29:55.791Z,86.80
2018-11-04T16:32:23.725Z,86.60
2018-11-04T16:34:51.621Z,86.40
2018-11-04T16:37:19.386Z,86.40
2018-11-04T16:39:47.157Z,85.80
2018-11-04T16:42:15.636Z,85.80
2018-11-04T16:44:43.504Z,86.00
2018-11-04T16:47:11.241Z,86.80
2018-11-04T16:49:39.004Z,87.70
2018-11-04T16:52:06.830Z,87.90
2018-11-04T16:54:34.609Z,87.90
2018-11-04T16:57:03.901Z,87.50
2018-11-04T16:59:31.673Z,87.30
2018-11-04T17:01:59.555Z,87.70
2018-11-04T17:04:27.449Z,87.50
2018-11-04T17:06:55.097Z,88.20
2018-11-04T17:09:22.933Z,87.90
2018-11-04T17:11:51.393Z,87.50
2018-11-04T17:14:19.227Z,87.30
2018-11-04T17:16:47.034Z,87.10
2018-11-04T17:19:14.833Z,86.00
2018-11-04T17:21:42.641Z,86.00
2018-11-04T17:24:10.535Z,86.80
2018-11-04T17:26:38.345Z,86.40
2018-11-04T17:29:06.161Z,86.40
2018-11-04T17:31:34.098Z,86.40
2018-11-04T17:34:02.623Z,87.30
2018-11-04T17:36:30.457Z,87.50
2018-11-04T17:38:58.785Z,87.30
2018-11-04T17:41:26.724Z,87.50
2018-11-04T17:43:54.656Z,87.50
2018-11-04T17:46:23.010Z,88.40
2018-11-04T17:48:50.845Z,88.80
2018-11-04T17:51:18.742Z,88.80
2018-11-04T17:53:46.613Z,89.20
2018-11-04T17:56:14.362Z,88.80
2018-11-04T17:58:42.152Z,89.20
2018-11-04T18:01:10.750Z,89.00
2018-11-04T18:03:38.558Z,89.40
2018-11-04T18:06:06.742Z,89.70
2018-11-04T18:08:34.509Z,90.10
2018-11-04T18:11:02.346Z,90.10
2018-11-04T18:13:30.113Z,90.10
2018-11-04T18:15:57.912Z,90.30
2018-11-04T18:18:25.716Z,90.40
2018-11-04T18:20:53.508Z,90.40
2018-11-04T18:23:21.269Z,90.40
2018-11-04T18:25:49.017Z,90.30
2018-11-04T18:28:16.789Z,90.30
2018-11-04T18:30:45.372Z,90.70
2018-11-04T18:33:13.606Z,90.70
2018-11-04T18:35:41.330Z,90.60
2018-11-04T18:38:09.178Z,90.50
2018-11-04T18:40:36.970Z,90.40
2018-11-04T18:43:04.833Z,90.30
2018-11-04T18:45:32.607Z,90.40
2018-11-04T18:48:00.441Z,90.20
2018-11-04T18:50:28.849Z,90.30
2018-11-04T18:52:56.541Z,90.30
2018-11-04T18:55:24.293Z,90.20
2018-11-04T18:57:52.007Z,90.20
2018-11-04T19:00:20.964Z,90.30
2018-11-04T19:02:49.186Z,90.20
2018-11-04T19:05:17.103Z,90.20
2018-11-04T19:07:44.867Z,90.30
2018-11-04T19:10:14.154Z,90.40
2018-11-04T19:12:43.482Z,90.50
2018-11-04T19:15:11.573Z,90.30
2018-11-04T19:17:40.262Z,90.10
2018-11-04T19:20:09.819Z,89.90
2018-11-04T19:22:38.040Z,89.70
2018-11-04T19:25:06.785Z,89.60
2018-11-04T19:27:34.512Z,89.00
2018-11-04T19:30:02.376Z,89.00
2018-11-04T19:32:30.108Z,88.80
2018-11-04T19:34:57.861Z,87.90
2018-11-04T19:37:26.289Z,88.40
2018-11-04T19:39:54.114Z,87.90
2018-11-04T19:42:23.671Z,87.90
2018-11-04T19:44:52.085Z,88.20
2018-11-04T19:47:19.860Z,88.10
2018-11-04T19:49:47.711Z,88.40
2018-11-04T19:52:15.540Z,88.10
2018-11-04T19:54:45.390Z,87.70
2018-11-04T19:57:13.194Z,86.90
2018-11-04T19:59:40.928Z,87.30
2018-11-04T20:02:08.661Z,87.10
2018-11-04T20:04:36.402Z,86.90
2018-11-04T20:07:04.515Z,86.80
2018-11-04T20:09:32.317Z,86.90
2018-11-04T20:12:00.152Z,87.50
2018-11-04T20:14:27.922Z,87.70
2018-11-04T20:16:55.730Z,87.70
2018-11-04T20:19:29.932Z,87.70
2018-11-04T20:21:58.432Z,87.70
2018-11-04T20:24:31.727Z,87.70
2018-11-04T20:26:59.489Z,87.90
2018-11-04T20:29:27.241Z,87.70
2018-11-04T20:32:00.581Z,87.30
2018-11-04T20:34:28.473Z,87.30
2018-11-04T20:36:56.384Z,87.10
2018-11-04T20:39:31.767Z,87.10
2018-11-04T20:41:59.577Z,87.30
2018-11-04T20:44:28.615Z,87.30
2018-11-04T20:46:57.489Z,86.90
2018-11-04T20:49:30.902Z,86.90
2018-11-04T20:51:58.707Z,87.10
2018-11-04T20:54:28.120Z,87.10
2018-11-04T20:57:01.525Z,87.30
2018-11-04T20:59:29.350Z,86.80
2018-11-04T21:02:00.591Z,86.20
2018-11-04T21:04:29.786Z,86.60
2018-11-04T21:06:58.057Z,86.90
2018-11-04T21:09:25.917Z,86.90
2018-11-04T21:11:54.291Z,86.60
2018-11-04T21:14:22.146Z,86.80
2018-11-04T21:16:50.017Z,86.90
2018-11-04T21:19:45.446Z,87.30
2018-11-04T21:22:30.922Z,87.10
2018-11-04T21:24:59.371Z,86.90
2018-11-04T21:27:27.261Z,86.60
2018-11-04T21:29:55.164Z,86.40
2018-11-04T21:32:22.950Z,86.40
2018-11-04T21:34:54.451Z,86.00
2018-11-04T21:37:22.849Z,85.60
2018-11-04T21:39:50.983Z,85.80
2018-11-04T21:42:19.636Z,85.60
2018-11-04T21:44:47.480Z,85.10
2018-11-04T21:47:16.314Z,85.10
2018-11-04T21:49:44.081Z,85.30
2018-11-04T21:52:11.913Z,85.80
2018-11-04T21:54:39.990Z,85.80
2018-11-04T21:57:08.818Z,85.60
2018-11-04T21:59:37.292Z,85.50
2018-11-04T22:02:05.582Z,85.10
2018-11-04T22:04:33.434Z,84.70
2018-11-04T22:07:01.241Z,84.90
2018-11-04T22:09:28.992Z,85.30
2018-11-04T22:11:57.414Z,85.50
2018-11-04T22:14:26.767Z,85.80
2018-11-04T22:16:55.408Z,85.60
2018-11-04T22:19:23.149Z,85.60
2018-11-04T22:21:51.631Z,85.80
2018-11-04T22:24:20.171Z,85.80
2018-11-04T22:26:47.922Z,84.90
2018-11-04T22:29:15.979Z,85.10
2018-11-04T22:31:44.616Z,84.50
2018-11-04T22:34:12.477Z,83.60
2018-11-04T22:36:40.634Z,84.30
2018-11-04T22:39:08.841Z,84.70
2018-11-04T22:41:36.679Z,84.90
2018-11-04T22:44:04.761Z,85.30
2018-11-04T22:46:32.515Z,85.50
2018-11-04T22:49:00.335Z,85.50
2018-11-04T22:51:28.140Z,85.30
2018-11-04T22:53:56.000Z,85.10
2018-11-04T22:56:23.827Z,84.90
2018-11-04T22:58:51.550Z,84.70
2018-11-04T23:01:19.524Z,84.50
2018-11-04T23:03:47.275Z,84.50
2018-11-04T23:06:15.234Z,84.50
2018-11-04T23:08:43.023Z,84.30
2018-11-04T23:11:10.865Z,84.30
2018-11-04T23:13:38.565Z,84.50
2018-11-04T23:16:06.347Z,84.30
2018-11-04T23:18:34.092Z,84.70
2018-11-04T23:21:01.924Z,84.70
2018-11-04T23:23:30.450Z,84.70
2018-11-04T23:25:58.542Z,84.90
2018-11-04T23:28:26.568Z,84.70
2018-11-04T23:30:54.378Z,84.30
2018-11-04T23:33:22.184Z,84.90
2018-11-04T23:35:49.959Z,85.10
2018-11-04T23:38:17.708Z,85.10
2018-11-04T23:40:45.473Z,85.10
2018-11-04T23:43:13.344Z,85.10
2018-11-04T23:45:41.103Z,85.30
2018-11-04T23:48:08.885Z,85.50
2018-11-04T23:50:36.632Z,85.30
2018-11-04T23:53:04.487Z,85.60
2018-11-04T23:55:32.681Z,86.20
2018-11-04T23:58:00.517Z,86.60
